sensor_id;sensor_type;location;lat;lon;timestamp;P1;durP1;ratioP1;P2;durP2;ratioP2
76357;SDS011;65185;21.060;105.826;2023-02-15T00:01:52;38.03;;;21.10;;
76357;SDS011;65185;21.060;105.826;2023-02-15T00:04:21;39.20;;;20.80;;
76357;SDS011;65185;21.060;105.826;2023-02-15T00:06:49;40.72;;;21.20;;
76357;SDS011;65185;21.060;105.826;2023-02-15T00:09:16;40.45;;;21.15;;
76357;SDS011;65185;21.060;105.826;2023-02-15T00:11:43;39.50;;;21.88;;
76357;SDS011;65185;21.060;105.826;2023-02-15T00:14:16;40.88;;;22.67;;
76357;SDS011;65185;21.060;105.826;2023-02-15T00:16:48;37.67;;;20.98;;
76357;SDS011;65185;21.060;105.826;2023-02-15T00:19:16;38.63;;;20.85;;
76357;SDS011;65185;21.060;105.826;2023-02-15T00:21:46;39.53;;;21.50;;
76357;SDS011;65185;21.060;105.826;2023-02-15T00:24:15;44.17;;;22.08;;
76357;SDS011;65185;21.060;105.826;2023-02-15T00:26:43;43.70;;;23.80;;
76357;SDS011;65185;21.060;105.826;2023-02-15T00:29:11;43.78;;;23.35;;
76357;SDS011;65185;21.060;105.826;2023-02-15T00:31:39;37.70;;;21.63;;
76357;SDS011;65185;21.060;105.826;2023-02-15T00:34:09;42.95;;;23.42;;
76357;SDS011;65185;21.060;105.826;2023-02-15T00:36:44;40.50;;;23.20;;
76357;SDS011;65185;21.060;105.826;2023-02-15T00:39:11;43.15;;;23.95;;
76357;SDS011;65185;21.060;105.826;2023-02-15T00:41:38;43.17;;;23.95;;
76357;SDS011;65185;21.060;105.826;2023-02-15T00:44:05;41.50;;;25.17;;
76357;SDS011;65185;21.060;105.826;2023-02-15T00:46:32;43.67;;;23.55;;
76357;SDS011;65185;21.060;105.826;2023-02-15T00:49:00;43.60;;;24.33;;
76357;SDS011;65185;21.060;105.826;2023-02-15T00:51:27;45.05;;;23.98;;
76357;SDS011;65185;21.060;105.826;2023-02-15T00:53:54;40.78;;;22.98;;
76357;SDS011;65185;21.060;105.826;2023-02-15T00:56:21;41.58;;;24.17;;
76357;SDS011;65185;21.060;105.826;2023-02-15T00:58:48;35.00;;;20.95;;
76357;SDS011;65185;21.060;105.826;2023-02-15T01:01:15;40.78;;;23.48;;
76357;SDS011;65185;21.060;105.826;2023-02-15T01:03:43;43.45;;;22.45;;
76357;SDS011;65185;21.060;105.826;2023-02-15T01:06:12;43.72;;;22.80;;
76357;SDS011;65185;21.060;105.826;2023-02-15T01:08:39;45.30;;;22.80;;
76357;SDS011;65185;21.060;105.826;2023-02-15T01:11:07;41.75;;;21.17;;
76357;SDS011;65185;21.060;105.826;2023-02-15T01:13:36;44.00;;;21.35;;
76357;SDS011;65185;21.060;105.826;2023-02-15T01:16:04;35.83;;;20.80;;
76357;SDS011;65185;21.060;105.826;2023-02-15T01:18:31;36.08;;;20.55;;
76357;SDS011;65185;21.060;105.826;2023-02-15T01:20:58;35.97;;;19.83;;
76357;SDS011;65185;21.060;105.826;2023-02-15T01:23:25;36.40;;;19.60;;
76357;SDS011;65185;21.060;105.826;2023-02-15T01:25:52;34.42;;;19.42;;
76357;SDS011;65185;21.060;105.826;2023-02-15T01:28:18;37.35;;;20.58;;
76357;SDS011;65185;21.060;105.826;2023-02-15T01:30:45;34.08;;;18.58;;
76357;SDS011;65185;21.060;105.826;2023-02-15T01:33:11;30.80;;;17.55;;
76357;SDS011;65185;21.060;105.826;2023-02-15T01:35:43;33.67;;;19.10;;
76357;SDS011;65185;21.060;105.826;2023-02-15T01:38:11;36.63;;;19.55;;
76357;SDS011;65185;21.060;105.826;2023-02-15T01:40:40;32.45;;;18.67;;
76357;SDS011;65185;21.060;105.826;2023-02-15T01:43:11;30.27;;;17.05;;
76357;SDS011;65185;21.060;105.826;2023-02-15T01:45:38;35.03;;;18.35;;
76357;SDS011;65185;21.060;105.826;2023-02-15T01:50:56;30.67;;;17.15;;
76357;SDS011;65185;21.060;105.826;2023-02-15T01:53:29;39.95;;;18.67;;
76357;SDS011;65185;21.060;105.826;2023-02-15T01:56:07;30.58;;;16.83;;
76357;SDS011;65185;21.060;105.826;2023-02-15T01:58:38;29.02;;;16.25;;
76357;SDS011;65185;21.060;105.826;2023-02-15T02:01:06;33.13;;;16.55;;
76357;SDS011;65185;21.060;105.826;2023-02-15T02:06:37;32.33;;;17.65;;
76357;SDS011;65185;21.060;105.826;2023-02-15T02:09:04;34.25;;;18.10;;
76357;SDS011;65185;21.060;105.826;2023-02-15T02:11:32;27.38;;;16.52;;
76357;SDS011;65185;21.060;105.826;2023-02-15T02:13:59;31.52;;;17.20;;
76357;SDS011;65185;21.060;105.826;2023-02-15T02:16:36;30.13;;;15.95;;
76357;SDS011;65185;21.060;105.826;2023-02-15T02:25:11;28.25;;;15.63;;
76357;SDS011;65185;21.060;105.826;2023-02-15T02:36:52;30.45;;;17.20;;
76357;SDS011;65185;21.060;105.826;2023-02-15T02:47:43;29.02;;;15.63;;
76357;SDS011;65185;21.060;105.826;2023-02-15T02:50:27;30.00;;;17.73;;
76357;SDS011;65185;21.060;105.826;2023-02-15T02:52:56;30.63;;;16.67;;
76357;SDS011;65185;21.060;105.826;2023-02-15T03:00:54;40.88;;;21.88;;
76357;SDS011;65185;21.060;105.826;2023-02-15T03:03:25;41.33;;;23.38;;
76357;SDS011;65185;21.060;105.826;2023-02-15T03:05:57;37.00;;;20.60;;
76357;SDS011;65185;21.060;105.826;2023-02-15T03:08:32;37.30;;;20.90;;
76357;SDS011;65185;21.060;105.826;2023-02-15T03:11:13;38.80;;;22.55;;
76357;SDS011;65185;21.060;105.826;2023-02-15T03:13:40;38.45;;;22.27;;
76357;SDS011;65185;21.060;105.826;2023-02-15T03:16:07;43.72;;;22.70;;
76357;SDS011;65185;21.060;105.826;2023-02-15T03:19:02;39.42;;;21.38;;
76357;SDS011;65185;21.060;105.826;2023-02-15T03:24:19;44.05;;;23.45;;
76357;SDS011;65185;21.060;105.826;2023-02-15T03:26:50;43.75;;;23.08;;
76357;SDS011;65185;21.060;105.826;2023-02-15T03:29:18;44.08;;;23.67;;
76357;SDS011;65185;21.060;105.826;2023-02-15T03:31:49;45.40;;;23.88;;
76357;SDS011;65185;21.060;105.826;2023-02-15T03:34:21;40.67;;;22.02;;
76357;SDS011;65185;21.060;105.826;2023-02-15T03:39:33;42.05;;;21.80;;
76357;SDS011;65185;21.060;105.826;2023-02-15T03:44:45;36.75;;;20.75;;
76357;SDS011;65185;21.060;105.826;2023-02-15T03:47:29;43.08;;;20.77;;
76357;SDS011;65185;21.060;105.826;2023-02-15T03:50:12;43.05;;;21.88;;
76357;SDS011;65185;21.060;105.826;2023-02-15T03:53:07;43.78;;;21.10;;
76357;SDS011;65185;21.060;105.826;2023-02-15T03:55:38;37.50;;;18.92;;
76357;SDS011;65185;21.060;105.826;2023-02-15T03:58:05;31.27;;;17.08;;
76357;SDS011;65185;21.060;105.826;2023-02-15T04:01:00;36.88;;;19.05;;
76357;SDS011;65185;21.060;105.826;2023-02-15T04:04:15;30.85;;;17.13;;
76357;SDS011;65185;21.060;105.826;2023-02-15T04:06:46;38.00;;;19.42;;
76357;SDS011;65185;21.060;105.826;2023-02-15T04:09:13;33.97;;;18.00;;
76357;SDS011;65185;21.060;105.826;2023-02-15T04:11:58;32.67;;;18.40;;
76357;SDS011;65185;21.060;105.826;2023-02-15T04:14:25;38.20;;;18.88;;
76357;SDS011;65185;21.060;105.826;2023-02-15T04:17:10;30.75;;;17.33;;
76357;SDS011;65185;21.060;105.826;2023-02-15T04:19:36;37.65;;;18.20;;
76357;SDS011;65185;21.060;105.826;2023-02-15T04:22:21;30.85;;;16.90;;
76357;SDS011;65185;21.060;105.826;2023-02-15T04:25:06;38.08;;;18.30;;
76357;SDS011;65185;21.060;105.826;2023-02-15T04:27:46;34.55;;;18.60;;
76357;SDS011;65185;21.060;105.826;2023-02-15T04:30:15;31.77;;;17.52;;
76357;SDS011;65185;21.060;105.826;2023-02-15T04:32:43;37.20;;;19.63;;
76357;SDS011;65185;21.060;105.826;2023-02-15T04:35:11;32.63;;;18.30;;
76357;SDS011;65185;21.060;105.826;2023-02-15T04:37:38;37.35;;;19.60;;
76357;SDS011;65185;21.060;105.826;2023-02-15T04:40:05;36.63;;;19.42;;
76357;SDS011;65185;21.060;105.826;2023-02-15T04:42:34;39.90;;;20.42;;
76357;SDS011;65185;21.060;105.826;2023-02-15T04:45:00;37.90;;;20.45;;
76357;SDS011;65185;21.060;105.826;2023-02-15T04:47:27;40.05;;;20.15;;
76357;SDS011;65185;21.060;105.826;2023-02-15T04:49:54;39.40;;;19.08;;
76357;SDS011;65185;21.060;105.826;2023-02-15T04:52:21;37.85;;;19.25;;
76357;SDS011;65185;21.060;105.826;2023-02-15T04:54:48;36.72;;;19.58;;
76357;SDS011;65185;21.060;105.826;2023-02-15T04:57:14;33.92;;;18.95;;
76357;SDS011;65185;21.060;105.826;2023-02-15T04:59:41;33.20;;;17.63;;
76357;SDS011;65185;21.060;105.826;2023-02-15T05:02:08;34.10;;;17.58;;
76357;SDS011;65185;21.060;105.826;2023-02-15T05:04:34;35.42;;;19.10;;
76357;SDS011;65185;21.060;105.826;2023-02-15T05:07:01;35.38;;;19.30;;
76357;SDS011;65185;21.060;105.826;2023-02-15T05:09:28;32.25;;;18.25;;
76357;SDS011;65185;21.060;105.826;2023-02-15T05:11:55;39.28;;;20.73;;
76357;SDS011;65185;21.060;105.826;2023-02-15T05:14:21;37.40;;;19.40;;
76357;SDS011;65185;21.060;105.826;2023-02-15T05:16:48;31.80;;;19.50;;
76357;SDS011;65185;21.060;105.826;2023-02-15T05:19:15;37.63;;;20.10;;
76357;SDS011;65185;21.060;105.826;2023-02-15T05:21:41;42.90;;;25.15;;
76357;SDS011;65185;21.060;105.826;2023-02-15T05:24:08;38.97;;;22.23;;
76357;SDS011;65185;21.060;105.826;2023-02-15T05:26:53;38.60;;;21.20;;
76357;SDS011;65185;21.060;105.826;2023-02-15T05:29:45;37.50;;;20.80;;
76357;SDS011;65185;21.060;105.826;2023-02-15T05:32:14;35.53;;;19.42;;
76357;SDS011;65185;21.060;105.826;2023-02-15T05:37:07;34.85;;;18.80;;
76357;SDS011;65185;21.060;105.826;2023-02-15T05:39:34;35.83;;;19.20;;
76357;SDS011;65185;21.060;105.826;2023-02-15T05:42:00;32.60;;;18.40;;
76357;SDS011;65185;21.060;105.826;2023-02-15T05:44:27;38.35;;;19.73;;
76357;SDS011;65185;21.060;105.826;2023-02-15T05:46:54;42.20;;;19.00;;
76357;SDS011;65185;21.060;105.826;2023-02-15T05:49:20;34.85;;;18.50;;
76357;SDS011;65185;21.060;105.826;2023-02-15T05:51:47;33.80;;;18.70;;
76357;SDS011;65185;21.060;105.826;2023-02-15T05:54:14;33.92;;;18.35;;
76357;SDS011;65185;21.060;105.826;2023-02-15T05:56:41;31.20;;;16.45;;
76357;SDS011;65185;21.060;105.826;2023-02-15T05:59:07;31.55;;;17.00;;
76357;SDS011;65185;21.060;105.826;2023-02-15T06:01:34;29.80;;;17.15;;
76357;SDS011;65185;21.060;105.826;2023-02-15T06:04:01;36.70;;;17.98;;
76357;SDS011;65185;21.060;105.826;2023-02-15T06:06:27;33.33;;;18.33;;
76357;SDS011;65185;21.060;105.826;2023-02-15T06:08:54;33.67;;;19.08;;
76357;SDS011;65185;21.060;105.826;2023-02-15T06:11:21;43.83;;;23.35;;
76357;SDS011;65185;21.060;105.826;2023-02-15T06:13:47;44.22;;;22.17;;
76357;SDS011;65185;21.060;105.826;2023-02-15T06:16:14;36.05;;;20.10;;
76357;SDS011;65185;21.060;105.826;2023-02-15T06:18:41;40.17;;;19.02;;
76357;SDS011;65185;21.060;105.826;2023-02-15T06:21:08;34.22;;;18.70;;
76357;SDS011;65185;21.060;105.826;2023-02-15T06:23:35;34.38;;;17.45;;
76357;SDS011;65185;21.060;105.826;2023-02-15T06:26:01;33.65;;;18.02;;
76357;SDS011;65185;21.060;105.826;2023-02-15T06:28:28;32.42;;;17.45;;
76357;SDS011;65185;21.060;105.826;2023-02-15T06:30:54;31.92;;;17.33;;
76357;SDS011;65185;21.060;105.826;2023-02-15T06:33:21;31.30;;;17.25;;
76357;SDS011;65185;21.060;105.826;2023-02-15T06:35:48;33.53;;;17.27;;
76357;SDS011;65185;21.060;105.826;2023-02-15T06:38:15;30.98;;;17.08;;
76357;SDS011;65185;21.060;105.826;2023-02-15T06:40:42;29.40;;;16.17;;
76357;SDS011;65185;21.060;105.826;2023-02-15T06:43:09;33.35;;;18.10;;
76357;SDS011;65185;21.060;105.826;2023-02-15T06:45:36;31.38;;;17.73;;
76357;SDS011;65185;21.060;105.826;2023-02-15T06:48:02;34.85;;;18.75;;
76357;SDS011;65185;21.060;105.826;2023-02-15T06:52:58;32.90;;;17.35;;
76357;SDS011;65185;21.060;105.826;2023-02-15T06:55:25;28.88;;;16.20;;
76357;SDS011;65185;21.060;105.826;2023-02-15T06:57:52;34.72;;;18.85;;
76357;SDS011;65185;21.060;105.826;2023-02-15T07:00:19;35.95;;;19.33;;
76357;SDS011;65185;21.060;105.826;2023-02-15T07:02:47;34.35;;;18.85;;
76357;SDS011;65185;21.060;105.826;2023-02-15T07:05:14;31.58;;;17.30;;
76357;SDS011;65185;21.060;105.826;2023-02-15T07:07:40;30.73;;;17.33;;
76357;SDS011;65185;21.060;105.826;2023-02-15T07:10:07;33.70;;;18.35;;
76357;SDS011;65185;21.060;105.826;2023-02-15T07:12:34;35.83;;;17.98;;
76357;SDS011;65185;21.060;105.826;2023-02-15T07:15:14;32.88;;;19.17;;
76357;SDS011;65185;21.060;105.826;2023-02-15T07:17:43;35.67;;;18.67;;
76357;SDS011;65185;21.060;105.826;2023-02-15T07:20:11;37.28;;;20.17;;
76357;SDS011;65185;21.060;105.826;2023-02-15T07:22:48;38.05;;;20.20;;
76357;SDS011;65185;21.060;105.826;2023-02-15T07:25:15;32.90;;;19.42;;
76357;SDS011;65185;21.060;105.826;2023-02-15T07:27:41;35.88;;;19.27;;
76357;SDS011;65185;21.060;105.826;2023-02-15T07:30:11;30.90;;;17.83;;
76357;SDS011;65185;21.060;105.826;2023-02-15T07:32:40;32.85;;;19.25;;
76357;SDS011;65185;21.060;105.826;2023-02-15T07:35:26;35.95;;;19.75;;
76357;SDS011;65185;21.060;105.826;2023-02-15T07:40:22;37.28;;;19.63;;
76357;SDS011;65185;21.060;105.826;2023-02-15T07:42:49;39.40;;;20.08;;
76357;SDS011;65185;21.060;105.826;2023-02-15T07:45:20;33.78;;;17.90;;
76357;SDS011;65185;21.060;105.826;2023-02-15T07:47:47;33.53;;;18.77;;
76357;SDS011;65185;21.060;105.826;2023-02-15T07:50:13;34.42;;;18.65;;
76357;SDS011;65185;21.060;105.826;2023-02-15T07:52:40;34.58;;;19.98;;
76357;SDS011;65185;21.060;105.826;2023-02-15T07:55:07;34.17;;;19.15;;
76357;SDS011;65185;21.060;105.826;2023-02-15T07:57:44;41.78;;;20.30;;
76357;SDS011;65185;21.060;105.826;2023-02-15T08:00:13;38.13;;;20.50;;
76357;SDS011;65185;21.060;105.826;2023-02-15T08:02:41;39.20;;;20.58;;
76357;SDS011;65185;21.060;105.826;2023-02-15T08:05:08;37.67;;;20.67;;
76357;SDS011;65185;21.060;105.826;2023-02-15T08:07:34;37.97;;;19.58;;
76357;SDS011;65185;21.060;105.826;2023-02-15T08:10:01;36.30;;;19.75;;
76357;SDS011;65185;21.060;105.826;2023-02-15T08:12:28;33.72;;;18.33;;
76357;SDS011;65185;21.060;105.826;2023-02-15T08:14:55;35.08;;;18.58;;
76357;SDS011;65185;21.060;105.826;2023-02-15T08:17:21;37.17;;;19.92;;
76357;SDS011;65185;21.060;105.826;2023-02-15T08:19:48;36.47;;;19.83;;
76357;SDS011;65185;21.060;105.826;2023-02-15T08:22:15;39.17;;;20.27;;
76357;SDS011;65185;21.060;105.826;2023-02-15T08:24:42;40.25;;;19.95;;
76357;SDS011;65185;21.060;105.826;2023-02-15T08:27:09;36.65;;;19.95;;
76357;SDS011;65185;21.060;105.826;2023-02-15T08:29:37;37.80;;;19.00;;
76357;SDS011;65185;21.060;105.826;2023-02-15T08:32:11;37.33;;;21.15;;
76357;SDS011;65185;21.060;105.826;2023-02-15T08:34:39;37.80;;;21.02;;
76357;SDS011;65185;21.060;105.826;2023-02-15T08:37:07;37.35;;;20.23;;
76357;SDS011;65185;21.060;105.826;2023-02-15T08:39:34;41.80;;;21.08;;
76357;SDS011;65185;21.060;105.826;2023-02-15T08:42:01;36.15;;;20.13;;
76357;SDS011;65185;21.060;105.826;2023-02-15T08:44:28;38.50;;;20.25;;
76357;SDS011;65185;21.060;105.826;2023-02-15T08:46:55;38.80;;;20.75;;
76357;SDS011;65185;21.060;105.826;2023-02-15T08:49:27;46.72;;;22.05;;
76357;SDS011;65185;21.060;105.826;2023-02-15T08:51:54;37.60;;;19.73;;
76357;SDS011;65185;21.060;105.826;2023-02-15T08:54:21;37.85;;;19.50;;
76357;SDS011;65185;21.060;105.826;2023-02-15T08:56:48;35.28;;;19.85;;
76357;SDS011;65185;21.060;105.826;2023-02-15T08:59:16;37.25;;;20.08;;
76357;SDS011;65185;21.060;105.826;2023-02-15T09:01:44;36.10;;;19.83;;
76357;SDS011;65185;21.060;105.826;2023-02-15T09:04:12;35.85;;;19.10;;
76357;SDS011;65185;21.060;105.826;2023-02-15T09:06:41;40.83;;;20.95;;
76357;SDS011;65185;21.060;105.826;2023-02-15T09:09:09;39.28;;;20.60;;
76357;SDS011;65185;21.060;105.826;2023-02-15T09:11:38;39.25;;;20.80;;
76357;SDS011;65185;21.060;105.826;2023-02-15T09:14:07;41.55;;;22.75;;
76357;SDS011;65185;21.060;105.826;2023-02-15T09:16:39;43.30;;;21.17;;
76357;SDS011;65185;21.060;105.826;2023-02-15T09:19:09;44.40;;;22.77;;
76357;SDS011;65185;21.060;105.826;2023-02-15T09:21:37;39.42;;;21.27;;
76357;SDS011;65185;21.060;105.826;2023-02-15T09:24:05;40.05;;;22.08;;
76357;SDS011;65185;21.060;105.826;2023-02-15T09:26:34;39.58;;;22.45;;
76357;SDS011;65185;21.060;105.826;2023-02-15T09:29:03;41.15;;;21.42;;
76357;SDS011;65185;21.060;105.826;2023-02-15T09:31:31;38.67;;;21.52;;
76357;SDS011;65185;21.060;105.826;2023-02-15T09:34:00;42.63;;;21.15;;
76357;SDS011;65185;21.060;105.826;2023-02-15T09:36:34;38.03;;;20.83;;
76357;SDS011;65185;21.060;105.826;2023-02-15T09:39:14;35.00;;;19.90;;
76357;SDS011;65185;21.060;105.826;2023-02-15T09:45:16;44.58;;;21.70;;
76357;SDS011;65185;21.060;105.826;2023-02-15T09:53:25;50.28;;;25.17;;
76357;SDS011;65185;21.060;105.826;2023-02-15T10:09:39;53.20;;;27.02;;
76357;SDS011;65185;21.060;105.826;2023-02-15T10:15:27;46.55;;;26.92;;
76357;SDS011;65185;21.060;105.826;2023-02-15T10:26:45;44.75;;;24.02;;
76357;SDS011;65185;21.060;105.826;2023-02-15T10:29:19;48.35;;;24.75;;
76357;SDS011;65185;21.060;105.826;2023-02-15T10:46:07;45.58;;;23.88;;
76357;SDS011;65185;21.060;105.826;2023-02-15T10:48:55;52.30;;;26.88;;
76357;SDS011;65185;21.060;105.826;2023-02-15T10:54:22;50.28;;;27.08;;
76357;SDS011;65185;21.060;105.826;2023-02-15T11:05:24;54.70;;;27.98;;
76357;SDS011;65185;21.060;105.826;2023-02-15T11:08:02;51.50;;;27.85;;
76357;SDS011;65185;21.060;105.826;2023-02-15T11:13:36;70.47;;;34.17;;
76357;SDS011;65185;21.060;105.826;2023-02-15T11:18:48;65.05;;;33.63;;
76357;SDS011;65185;21.060;105.826;2023-02-15T11:24:14;88.13;;;45.90;;
76357;SDS011;65185;21.060;105.826;2023-02-15T11:32:28;66.53;;;34.15;;
76357;SDS011;65185;21.060;105.826;2023-02-15T11:34:58;60.75;;;31.75;;
76357;SDS011;65185;21.060;105.826;2023-02-15T11:37:34;79.38;;;39.70;;
76357;SDS011;65185;21.060;105.826;2023-02-15T11:40:30;77.35;;;40.00;;
76357;SDS011;65185;21.060;105.826;2023-02-15T11:43:36;70.40;;;36.63;;
76357;SDS011;65185;21.060;105.826;2023-02-15T11:46:22;76.22;;;38.50;;
76357;SDS011;65185;21.060;105.826;2023-02-15T11:48:50;74.50;;;39.60;;
76357;SDS011;65185;21.060;105.826;2023-02-15T11:51:18;68.22;;;35.35;;
76357;SDS011;65185;21.060;105.826;2023-02-15T11:53:47;67.03;;;33.83;;
76357;SDS011;65185;21.060;105.826;2023-02-15T11:56:21;57.92;;;30.83;;
76357;SDS011;65185;21.060;105.826;2023-02-15T11:58:58;65.68;;;34.40;;
76357;SDS011;65185;21.060;105.826;2023-02-15T12:01:37;66.28;;;33.63;;
76357;SDS011;65185;21.060;105.826;2023-02-15T12:12:35;77.10;;;39.28;;
76357;SDS011;65185;21.060;105.826;2023-02-15T12:15:06;72.45;;;37.30;;
76357;SDS011;65185;21.060;105.826;2023-02-15T12:17:37;76.90;;;40.55;;
76357;SDS011;65185;21.060;105.826;2023-02-15T12:20:07;78.10;;;41.08;;
76357;SDS011;65185;21.060;105.826;2023-02-15T12:23:08;85.93;;;44.25;;
76357;SDS011;65185;21.060;105.826;2023-02-15T12:25:42;89.78;;;46.70;;
76357;SDS011;65185;21.060;105.826;2023-02-15T12:30:56;76.07;;;41.60;;
76357;SDS011;65185;21.060;105.826;2023-02-15T12:36:03;70.45;;;37.10;;
76357;SDS011;65185;21.060;105.826;2023-02-15T12:38:37;65.35;;;35.22;;
76357;SDS011;65185;21.060;105.826;2023-02-15T12:41:05;67.55;;;37.28;;
76357;SDS011;65185;21.060;105.826;2023-02-15T12:43:44;64.97;;;35.78;;
76357;SDS011;65185;21.060;105.826;2023-02-15T12:46:28;62.63;;;35.10;;
76357;SDS011;65185;21.060;105.826;2023-02-15T12:49:06;62.80;;;34.50;;
76357;SDS011;65185;21.060;105.826;2023-02-15T12:51:43;64.63;;;34.00;;
76357;SDS011;65185;21.060;105.826;2023-02-15T12:56:48;61.38;;;33.65;;
76357;SDS011;65185;21.060;105.826;2023-02-15T12:59:15;61.45;;;32.28;;
76357;SDS011;65185;21.060;105.826;2023-02-15T13:01:45;62.22;;;31.90;;
76357;SDS011;65185;21.060;105.826;2023-02-15T13:04:26;59.78;;;31.48;;
76357;SDS011;65185;21.060;105.826;2023-02-15T13:06:55;58.70;;;32.75;;
76357;SDS011;65185;21.060;105.826;2023-02-15T13:14:54;62.42;;;33.50;;
76357;SDS011;65185;21.060;105.826;2023-02-15T13:17:30;57.92;;;31.10;;
76357;SDS011;65185;21.060;105.826;2023-02-15T13:20:03;64.35;;;32.53;;
76357;SDS011;65185;21.060;105.826;2023-02-15T13:22:38;63.85;;;34.28;;
76357;SDS011;65185;21.060;105.826;2023-02-15T13:25:17;59.97;;;32.28;;
76357;SDS011;65185;21.060;105.826;2023-02-15T13:27:45;63.10;;;33.25;;
76357;SDS011;65185;21.060;105.826;2023-02-15T13:30:21;58.08;;;32.42;;
76357;SDS011;65185;21.060;105.826;2023-02-15T13:33:00;58.80;;;32.90;;
76357;SDS011;65185;21.060;105.826;2023-02-15T13:35:40;56.60;;;32.17;;
76357;SDS011;65185;21.060;105.826;2023-02-15T13:38:49;57.78;;;31.27;;
76357;SDS011;65185;21.060;105.826;2023-02-15T13:41:24;58.08;;;32.33;;
76357;SDS011;65185;21.060;105.826;2023-02-15T13:49:39;57.65;;;30.90;;
76357;SDS011;65185;21.060;105.826;2023-02-15T13:52:26;60.60;;;32.85;;
76357;SDS011;65185;21.060;105.826;2023-02-15T13:55:16;61.08;;;31.20;;
76357;SDS011;65185;21.060;105.826;2023-02-15T14:12:11;51.15;;;28.40;;
76357;SDS011;65185;21.060;105.826;2023-02-15T14:18:07;48.40;;;26.00;;
76357;SDS011;65185;21.060;105.826;2023-02-15T14:23:43;45.50;;;24.48;;
76357;SDS011;65185;21.060;105.826;2023-02-15T14:29:10;42.97;;;22.80;;
76357;SDS011;65185;21.060;105.826;2023-02-15T14:31:43;46.00;;;24.75;;
76357;SDS011;65185;21.060;105.826;2023-02-15T14:34:42;46.88;;;24.67;;
76357;SDS011;65185;21.060;105.826;2023-02-15T14:43:37;45.78;;;24.98;;
76357;SDS011;65185;21.060;105.826;2023-02-15T14:49:25;47.75;;;25.55;;
76357;SDS011;65185;21.060;105.826;2023-02-15T14:51:55;44.92;;;23.63;;
76357;SDS011;65185;21.060;105.826;2023-02-15T14:59:37;46.08;;;24.35;;
76357;SDS011;65185;21.060;105.826;2023-02-15T15:08:00;47.35;;;25.05;;
76357;SDS011;65185;21.060;105.826;2023-02-15T15:10:45;47.13;;;25.73;;
76357;SDS011;65185;21.060;105.826;2023-02-15T15:19:03;46.13;;;23.73;;
76357;SDS011;65185;21.060;105.826;2023-02-15T15:41:18;47.17;;;24.30;;
76357;SDS011;65185;21.060;105.826;2023-02-15T15:47:08;47.85;;;24.75;;
76357;SDS011;65185;21.060;105.826;2023-02-15T15:49:37;48.22;;;25.92;;
76357;SDS011;65185;21.060;105.826;2023-02-15T15:52:15;48.15;;;25.83;;
76357;SDS011;65185;21.060;105.826;2023-02-15T15:54:46;48.72;;;24.73;;
76357;SDS011;65185;21.060;105.826;2023-02-15T15:59:53;44.40;;;24.63;;
76357;SDS011;65185;21.060;105.826;2023-02-15T16:02:24;48.15;;;24.38;;
76357;SDS011;65185;21.060;105.826;2023-02-15T16:04:51;45.67;;;24.70;;
76357;SDS011;65185;21.060;105.826;2023-02-15T16:09:55;44.00;;;24.83;;
76357;SDS011;65185;21.060;105.826;2023-02-15T16:12:27;47.00;;;23.92;;
76357;SDS011;65185;21.060;105.826;2023-02-15T16:14:57;41.17;;;23.10;;
76357;SDS011;65185;21.060;105.826;2023-02-15T16:17:27;53.42;;;26.92;;
76357;SDS011;65185;21.060;105.826;2023-02-15T16:20:00;46.35;;;24.00;;
76357;SDS011;65185;21.060;105.826;2023-02-15T16:22:31;46.35;;;24.60;;
76357;SDS011;65185;21.060;105.826;2023-02-15T16:35:38;44.72;;;25.63;;
76357;SDS011;65185;21.060;105.826;2023-02-15T16:38:19;47.60;;;24.00;;
76357;SDS011;65185;21.060;105.826;2023-02-15T16:41:07;49.22;;;25.38;;
76357;SDS011;65185;21.060;105.826;2023-02-15T16:46:05;40.78;;;23.70;;
76357;SDS011;65185;21.060;105.826;2023-02-15T16:48:44;46.63;;;24.75;;
76357;SDS011;65185;21.060;105.826;2023-02-15T16:51:24;50.40;;;26.90;;
76357;SDS011;65185;21.060;105.826;2023-02-15T16:53:53;61.25;;;31.27;;
76357;SDS011;65185;21.060;105.826;2023-02-15T16:56:24;59.30;;;32.00;;
76357;SDS011;65185;21.060;105.826;2023-02-15T16:58:58;64.78;;;35.88;;
76357;SDS011;65185;21.060;105.826;2023-02-15T17:01:31;66.85;;;37.22;;
76357;SDS011;65185;21.060;105.826;2023-02-15T17:09:54;57.92;;;32.30;;
76357;SDS011;65185;21.060;105.826;2023-02-15T17:18:31;55.03;;;29.23;;
76357;SDS011;65185;21.060;105.826;2023-02-15T17:21:16;52.03;;;28.17;;
76357;SDS011;65185;21.060;105.826;2023-02-15T17:23:49;47.60;;;26.80;;
76357;SDS011;65185;21.060;105.826;2023-02-15T17:26:23;46.72;;;28.50;;
76357;SDS011;65185;21.060;105.826;2023-02-15T17:28:54;49.40;;;27.48;;
76357;SDS011;65185;21.060;105.826;2023-02-15T17:31:44;57.28;;;29.38;;
76357;SDS011;65185;21.060;105.826;2023-02-15T17:39:52;49.08;;;27.10;;
76357;SDS011;65185;21.060;105.826;2023-02-15T17:42:20;55.20;;;29.30;;
76357;SDS011;65185;21.060;105.826;2023-02-15T17:44:47;58.58;;;29.27;;
76357;SDS011;65185;21.060;105.826;2023-02-15T17:47:15;54.95;;;29.55;;
76357;SDS011;65185;21.060;105.826;2023-02-15T17:49:45;58.25;;;32.10;;
76357;SDS011;65185;21.060;105.826;2023-02-15T17:52:15;51.38;;;27.95;;
76357;SDS011;65185;21.060;105.826;2023-02-15T17:54:43;60.85;;;30.90;;
76357;SDS011;65185;21.060;105.826;2023-02-15T17:57:29;53.85;;;30.20;;
76357;SDS011;65185;21.060;105.826;2023-02-15T17:59:56;52.38;;;30.50;;
76357;SDS011;65185;21.060;105.826;2023-02-15T18:02:41;59.65;;;30.65;;
76357;SDS011;65185;21.060;105.826;2023-02-15T18:05:27;58.05;;;30.35;;
76357;SDS011;65185;21.060;105.826;2023-02-15T18:08:16;55.42;;;30.08;;
76357;SDS011;65185;21.060;105.826;2023-02-15T18:11:02;60.67;;;31.40;;
76357;SDS011;65185;21.060;105.826;2023-02-15T18:13:47;58.53;;;30.77;;
76357;SDS011;65185;21.060;105.826;2023-02-15T18:16:16;60.38;;;32.08;;
76357;SDS011;65185;21.060;105.826;2023-02-15T18:18:46;61.00;;;31.88;;
76357;SDS011;65185;21.060;105.826;2023-02-15T18:21:13;58.50;;;30.95;;
76357;SDS011;65185;21.060;105.826;2023-02-15T18:23:41;53.63;;;30.58;;
76357;SDS011;65185;21.060;105.826;2023-02-15T18:26:09;57.17;;;30.52;;
76357;SDS011;65185;21.060;105.826;2023-02-15T18:28:43;58.25;;;30.88;;
76357;SDS011;65185;21.060;105.826;2023-02-15T18:31:10;52.75;;;29.33;;
76357;SDS011;65185;21.060;105.826;2023-02-15T18:33:54;54.55;;;29.40;;
76357;SDS011;65185;21.060;105.826;2023-02-15T18:36:28;60.95;;;32.22;;
76357;SDS011;65185;21.060;105.826;2023-02-15T18:38:58;58.53;;;31.50;;
76357;SDS011;65185;21.060;105.826;2023-02-15T18:43:54;58.60;;;31.17;;
76357;SDS011;65185;21.060;105.826;2023-02-15T18:46:21;58.30;;;31.25;;